Barcelona Knutsen — EACW — position and weather

sailwx.info

Track history (hours):
 
Tides and Currents Weather Stations Pressure Air Temp Water Temp Dewpoint Dewpoint Depression Visibility Wind Speed Wind Dir Waves Ship Positions

Barcelona Knutsen

Last reported at 2017-Nov-16 04:14 UTC. Time now 2017-Nov-22 11:03 UTC.
Position N 01°15' E 104°06'.

Length 290 m; draft 11.5 m.

Type: Tanker. MMSI: 224436000.

Date/timePositionNaut miles runAvg speedWind from/ knotsBaromVisibWave heightAir tempDewpointWater temp
2017-Nov-16 04:14N 01°15' E 104°06'1 4.9
2017-Nov-16 03:58N 01°15' E 104°05'1 2.2
2017-Nov-16 03:20N 01°15' E 104°04'1 3.6
2017-Nov-16 02:58N 01°14' E 104°02'2 5.2
2017-Nov-16 02:30N 01°14' E 103°60'3 5.1
2017-Nov-16 02:00N 01°14' E 103°57'611.9
2017-Nov-16 01:31N 01°11' E 103°52'815.8
2017-Nov-16 01:00N 01°07' E 103°45'815.5
2017-Nov-16 00:30N 01°03' E 103°39'917.2
2017-Nov-16 00:00N 01°07' E 103°31'917.3
2017-Nov-15 23:31N 01°11' E 103°24'917.3
2017-Nov-15 23:00N 01°17' E 103°17'  
Track history (hours):
 
Tides and Currents Weather Stations Pressure Air Temp Water Temp Dewpoint Dewpoint Depression Visibility Wind Speed Wind Dir Waves Ship Positions

Barcelona Knutsen

Last reported at 2017-Nov-16 04:14 UTC. Time now 2017-Nov-22 11:03 UTC.
Position N 01°15' E 104°06'.

Length 290 m; draft 11.5 m.

Type: Tanker. MMSI: 224436000.

Date/timePositionNaut miles runAvg speedWind from/ knotsBaromVisibWave heightAir tempDewpointWater temp
2017-Nov-16 04:14N 01°15' E 104°06'1 4.9
2017-Nov-16 03:58N 01°15' E 104°05'1 2.2
2017-Nov-16 03:20N 01°15' E 104°04'1 3.6
2017-Nov-16 02:58N 01°14' E 104°02'2 5.2
2017-Nov-16 02:30N 01°14' E 103°60'3 5.1
2017-Nov-16 02:00N 01°14' E 103°57'611.9
2017-Nov-16 01:31N 01°11' E 103°52'815.8
2017-Nov-16 01:00N 01°07' E 103°45'815.5
2017-Nov-16 00:30N 01°03' E 103°39'917.2
2017-Nov-16 00:00N 01°07' E 103°31'917.3
2017-Nov-15 23:31N 01°11' E 103°24'917.3
2017-Nov-15 23:00N 01°17' E 103°17'  

Dump ship's entire track history